Observations for BOSCOMBE DOWN, United Kingdom (EGDM)

EGDM 112250Z AUTO 12007KT 9999 FEW020/// OVC120/// 06/05 Q1021  
EGDM 112150Z AUTO 13008KT 9999 BKN130/// 07/05 Q1020
EGDM 112050Z AUTO 14007KT 9999 SCT028/// BKN150/// 07/06 Q1021  
EGDM 111950Z AUTO 12009KT 9999 FEW023/// BKN130/// 07/06 Q1021  
EGDM 111850Z AUTO 12008KT 9999 FEW023/// SCT030/// BKN160/// 07/06 Q1021
EGDM 111750Z 12008KT 9999 BKN020 07/06 Q1021 WHT
EGDM 111650Z 12008KT 9999 FEW020 BKN030 07/06 Q1021 BLU 
EGDM 111614Z 12006KT 9999 FEW015 BKN030 07/06 Q1021 BLU NOSIG   
EGDM 111614Z 12006KT 9999 FEW015 BKN030 07/06 Q1021 BLU NOSIG
EGDM 111550Z 12007KT 9999 SCT015 BKN030 08/07 Q1021 WHT BECMG FEW015 BLU
EGDM 111450Z 13009KT 9999 -DZ FEW010 BKN015 BKN024 08/07 Q1022 WHT BECMG FEW015 BKN025 BLU  
EGDM 111441Z 14009KT 7000 -DZ FEW010 BKN014 BKN025 08/07 Q1022 GRN BECMG 9999 NSW EFW014 BKN025 BLU 
EGDM 111441Z 14009KT 7000 -DZ FEW010 BKN014 BKN025 08/07 Q1022 GRN BECMG 9999 NSW EFW014 BKN025 BLU
EGDM 111350Z 14007KT 8000 -DZ FEW012 BKN015 BKN025 08/06 Q1023 WHT TEMPO 7000 WHT   
EGDM 111250Z 14009KT 9999 FEW020 SCT034 09/06 Q1023 BLU NOSIG   
EGDM 111150Z 13007KT 9999 FEW030 08/06 Q1023 BLU NOSIG  
EGDM 111050Z 17005KT 9999 FEW030 07/05 Q1024 BLU NOSIG  
EGDM 110950Z 18004KT 9999 FEW030 06/05 Q1024 BLU NOSIG  
EGDM 110850Z 11005KT 9999 FEW007 BKN030 04/03 Q1025 BLU NOSIG   
EGDM 110809Z 09005KT 5000 BR FEW006 BKN033 03/03 Q1025 WHT BECMG 9000 HZ BLU
EGDM 110809Z 09005KT 5000 BR FEW006 BKN033 03/03 Q1025 WHT BECMG 9000 HZ BLU
EGDM 110750Z 08005KT 2800 BR BKN033 03/03 Q1025 YLO1 BECMG 5000 BR WHT  
EGDM 110724Z 10003KT 2800 BR BKN033 03/03 Q1025 YLO1
EGDM 110724Z 10003KT 2800 BR BKN033 03/03 Q1025 YLO1
EGDM 110650Z 11003KT 2000 BR BKN032 03/03 Q1025 YLO2
EGDM 110550Z AUTO 07007KT 0550 FG FEW010/// BKN033/// 02/02 Q1025   
EGDM 110450Z AUTO 07008KT 0550 FG FEW006/// BKN032/// 02/02 Q1025   
EGDM 110350Z AUTO 13002KT 0250 FG BKN006/// BKN050/// 02/01 Q1025   
EGDM 110250Z AUTO 19004KT 0150 FG BKN007/// 02/02 Q1026 
EGDM 110150Z AUTO 14003KT 0150 FG FEW006/// 04/03 Q1026 
EGDM 110050Z AUTO 14002KT 0300 FG NCD 03/03 Q1026   
EGDM 102350Z AUTO 03003KT 6000 BR NCD 04/04 Q1027   
EGDM 102250Z AUTO 29004KT 9999 SCT070/// 05/04 Q1027